createdAt,value
2022-09-01T00:02:08.871Z,8.93
2022-09-01T00:04:58.428Z,8.75
2022-09-01T00:07:44.081Z,8.60
2022-09-01T00:10:29.755Z,8.50
2022-09-01T00:13:15.852Z,8.43
2022-09-01T00:16:04.186Z,8.77
2022-09-01T00:18:53.763Z,8.70
2022-09-01T00:21:43.701Z,8.15
2022-09-01T00:24:29.223Z,8.73
2022-09-01T00:27:15.202Z,7.93
2022-09-01T00:30:01.339Z,7.85
2022-09-01T00:32:47.362Z,8.65
2022-09-01T00:35:32.637Z,8.32
2022-09-01T00:38:22.864Z,7.95
2022-09-01T00:41:08.981Z,7.78
2022-09-01T00:44:00.260Z,8.93
2022-09-01T00:46:55.493Z,8.85
2022-09-01T00:49:49.530Z,8.48
2022-09-01T00:52:42.802Z,9.50
2022-09-01T00:55:32.632Z,8.23
2022-09-01T00:58:19.561Z,8.38
2022-09-01T01:01:07.834Z,8.45
2022-09-01T01:03:53.361Z,9.77
2022-09-01T01:06:40.912Z,9.02
2022-09-01T01:09:28.993Z,8.98
2022-09-01T01:12:18.770Z,8.90
2022-09-01T01:15:07.028Z,8.82
2022-09-01T01:17:52.119Z,8.80
2022-09-01T01:20:56.332Z,9.13
2022-09-01T01:24:02.035Z,9.13
2022-09-01T01:26:47.679Z,8.77
2022-09-01T01:29:39.910Z,9.23
2022-09-01T01:32:26.439Z,9.38
2022-09-01T01:35:15.832Z,9.40
2022-09-01T01:38:04.992Z,8.90
2022-09-01T01:40:53.725Z,8.85
2022-09-01T01:43:41.674Z,8.57
2022-09-01T01:46:27.567Z,9.93
2022-09-01T01:49:20.728Z,8.48
2022-09-01T01:52:08.273Z,9.85
2022-09-01T01:54:54.319Z,9.35
2022-09-01T01:57:47.969Z,9.15
2022-09-01T02:00:34.576Z,9.13
2022-09-01T02:03:25.032Z,9.15
2022-09-01T02:06:12.080Z,8.70
2022-09-01T02:08:59.047Z,9.05
2022-09-01T02:11:44.658Z,9.32
2022-09-01T02:14:31.408Z,9.00
2022-09-01T02:17:17.099Z,8.18
2022-09-01T02:20:03.491Z,8.43
2022-09-01T02:22:52.003Z,8.27
2022-09-01T02:26:13.998Z,8.70
2022-09-01T02:28:55.277Z,8.60
2022-09-01T02:31:46.262Z,8.48
2022-09-01T02:34:31.915Z,9.65
2022-09-01T02:37:17.771Z,8.55
2022-09-01T02:40:03.609Z,9.23
2022-09-01T02:42:53.058Z,9.73
2022-09-01T02:45:39.831Z,9.82
2022-09-01T02:48:37.150Z,9.52
2022-09-01T02:51:27.462Z,9.25
2022-09-01T02:57:04.860Z,9.10
2022-09-01T02:59:50.317Z,9.70
2022-09-01T03:02:36.792Z,9.75
2022-09-01T03:05:26.951Z,9.63
2022-09-01T03:08:16.104Z,10.02
2022-09-01T03:11:02.036Z,8.80
2022-09-01T03:13:47.895Z,9.70
2022-09-01T03:16:33.868Z,9.45
2022-09-01T03:19:19.952Z,9.60
2022-09-01T03:22:06.133Z,10.73
2022-09-01T03:24:51.657Z,10.07
2022-09-01T03:27:37.779Z,10.55
2022-09-01T03:30:23.769Z,9.80
2022-09-01T03:33:09.512Z,9.43
2022-09-01T03:35:56.384Z,10.38
2022-09-01T03:38:43.738Z,9.18
2022-09-01T03:41:31.105Z,9.75
2022-09-01T03:44:17.056Z,10.32
2022-09-01T03:47:03.731Z,11.05
2022-09-01T03:49:51.734Z,9.75
2022-09-01T03:52:41.070Z,9.98
2022-09-01T03:55:32.366Z,10.40
2022-09-01T03:58:19.560Z,9.65
2022-09-01T04:01:05.221Z,9.65
2022-09-01T04:03:53.877Z,10.00
2022-09-01T04:06:45.662Z,10.10
2022-09-01T04:09:35.234Z,11.00
2022-09-01T04:12:20.509Z,10.77
2022-09-01T04:15:11.009Z,9.93
2022-09-01T04:18:20.065Z,10.43
2022-09-01T04:21:08.100Z,11.45
2022-09-01T04:23:55.428Z,10.57
2022-09-01T04:26:42.633Z,10.95
2022-09-01T04:29:31.432Z,12.30
2022-09-01T04:32:17.261Z,10.90
2022-09-01T04:35:11.570Z,10.95
2022-09-01T04:37:57.122Z,10.75
2022-09-01T04:40:43.032Z,11.50
2022-09-01T04:43:29.028Z,11.18
2022-09-01T04:46:17.177Z,10.80
2022-09-01T04:49:12.934Z,11.75
2022-09-01T04:51:59.433Z,10.75
2022-09-01T04:54:44.922Z,12.32
2022-09-01T04:57:31.409Z,11.30
2022-09-01T05:00:25.297Z,10.90
2022-09-01T05:03:11.591Z,11.32
2022-09-01T05:06:20.221Z,12.00
2022-09-01T05:09:13.859Z,10.95
2022-09-01T05:12:31.574Z,12.18
2022-09-01T05:15:17.224Z,11.07
2022-09-01T05:18:09.937Z,12.23
2022-09-01T05:20:57.479Z,11.57
2022-09-01T05:23:45.197Z,12.32
2022-09-01T05:26:34.556Z,12.18
2022-09-01T05:29:21.061Z,12.60
2022-09-01T05:32:10.117Z,13.35
2022-09-01T05:34:57.050Z,13.47
2022-09-01T05:37:43.478Z,11.63
2022-09-01T05:40:29.732Z,11.68
2022-09-01T05:43:15.115Z,11.35
2022-09-01T05:46:07.038Z,12.70
2022-09-01T05:48:54.726Z,12.63
2022-09-01T05:51:45.986Z,15.55
2022-09-01T05:54:38.231Z,15.50
2022-09-01T05:57:34.416Z,14.05
2022-09-01T06:00:21.019Z,14.40
2022-09-01T06:03:09.314Z,16.40
2022-09-01T06:06:03.420Z,17.48
2022-09-01T06:08:55.456Z,16.30
2022-09-01T06:11:42.288Z,17.92
2022-09-01T06:14:27.650Z,16.00
2022-09-01T06:17:16.194Z,16.60
2022-09-01T06:20:10.461Z,18.25
2022-09-01T06:22:56.757Z,17.42
2022-09-01T06:25:46.680Z,17.52
2022-09-01T06:28:34.976Z,18.17
2022-09-01T06:31:25.728Z,17.75
2022-09-01T06:34:17.633Z,18.02
2022-09-01T06:37:04.502Z,18.60
2022-09-01T06:39:50.666Z,18.20
2022-09-01T06:42:36.089Z,17.95
2022-09-01T06:45:23.794Z,17.23
2022-09-01T06:48:09.881Z,17.63
2022-09-01T06:51:20.857Z,18.08
2022-09-01T06:54:14.676Z,18.30
2022-09-01T07:00:20.820Z,18.95
2022-09-01T07:03:14.642Z,19.45
2022-09-01T07:06:58.701Z,20.25
2022-09-01T07:09:49.983Z,19.75
2022-09-01T07:13:05.757Z,18.98
2022-09-01T07:19:03.930Z,19.00
2022-09-01T07:22:09.513Z,18.42
2022-09-01T07:25:16.777Z,16.55
2022-09-01T07:28:39.896Z,15.05
2022-09-01T07:34:48.992Z,12.07
2022-09-01T07:44:12.951Z,13.00
2022-09-01T07:47:20.255Z,12.57
2022-09-01T07:50:25.354Z,13.48
2022-09-01T07:53:19.081Z,14.27
2022-09-01T07:56:10.923Z,12.50
2022-09-01T07:59:02.235Z,12.32
2022-09-01T08:01:47.995Z,12.15
2022-09-01T08:04:34.461Z,11.50
2022-09-01T08:07:20.527Z,11.60
2022-09-01T08:10:08.221Z,10.32
2022-09-01T08:12:57.697Z,10.98
2022-09-01T08:18:51.685Z,9.00
2022-09-01T08:21:49.427Z,9.05
2022-09-01T08:24:43.912Z,8.32
2022-09-01T08:27:29.540Z,7.80
2022-09-01T08:30:15.586Z,7.45
2022-09-01T08:33:10.744Z,6.07
2022-09-01T08:35:58.781Z,6.72
2022-09-01T08:38:45.356Z,6.75
2022-09-01T08:42:03.714Z,6.28
2022-09-01T08:45:12.819Z,5.85
2022-09-01T08:51:31.830Z,4.90
2022-09-01T08:54:37.503Z,5.32
2022-09-01T08:57:34.889Z,4.85
2022-09-01T09:00:58.013Z,5.15
2022-09-01T09:03:47.005Z,5.78
2022-09-01T09:06:41.157Z,5.10
2022-09-01T09:09:41.278Z,5.20
2022-09-01T09:12:29.906Z,5.57
2022-09-01T09:15:32.290Z,5.95
2022-09-01T09:18:56.736Z,5.80
2022-09-01T09:21:45.288Z,7.15
2022-09-01T09:24:51.707Z,6.90
2022-09-01T09:27:41.112Z,7.10
2022-09-01T09:30:29.618Z,6.30
2022-09-01T09:33:52.869Z,5.88
2022-09-01T09:36:39.208Z,6.50
2022-09-01T09:39:24.739Z,6.55
2022-09-01T09:42:15.996Z,6.30
2022-09-01T09:45:01.966Z,5.78
2022-09-01T09:47:47.716Z,6.10
2022-09-01T09:50:42.765Z,5.90
2022-09-01T09:53:30.397Z,6.15
2022-09-01T09:56:15.794Z,5.63
2022-09-01T09:59:01.846Z,6.55
2022-09-01T10:01:53.258Z,6.03
2022-09-01T10:04:38.885Z,5.95
2022-09-01T10:07:36.636Z,5.82
2022-09-01T10:10:40.340Z,5.97
2022-09-01T10:13:29.485Z,6.00
2022-09-01T10:16:35.031Z,5.80
2022-09-01T10:19:21.815Z,6.35
2022-09-01T10:22:10.025Z,5.75
2022-09-01T10:24:55.747Z,6.22
2022-09-01T10:27:46.428Z,6.18
2022-09-01T10:30:34.765Z,5.47
2022-09-01T10:33:22.238Z,5.68
2022-09-01T10:36:08.610Z,5.95
2022-09-01T10:39:04.715Z,6.22
2022-09-01T10:41:59.319Z,5.75
2022-09-01T10:44:57.876Z,5.15
2022-09-01T10:47:43.884Z,5.20
2022-09-01T10:50:35.347Z,5.03
2022-09-01T10:53:44.650Z,5.40
2022-09-01T10:56:44.651Z,5.32
2022-09-01T10:59:41.874Z,5.00
2022-09-01T11:02:35.855Z,5.18
2022-09-01T11:05:22.159Z,4.82
2022-09-01T11:08:29.961Z,4.97
2022-09-01T11:11:34.503Z,4.43
2022-09-01T11:14:23.571Z,4.80
2022-09-01T11:17:16.558Z,4.40
2022-09-01T11:20:23.394Z,4.22
2022-09-01T11:23:27.686Z,4.55
2022-09-01T11:26:32.423Z,3.88
2022-09-01T11:29:55.981Z,4.07
2022-09-01T11:32:46.836Z,4.30
2022-09-01T11:35:32.786Z,4.05
2022-09-01T11:38:20.163Z,3.80
2022-09-01T11:41:05.728Z,3.80
2022-09-01T11:43:55.327Z,3.47
2022-09-01T11:49:35.691Z,3.47
2022-09-01T11:52:25.906Z,4.00
2022-09-01T11:55:11.850Z,3.90
2022-09-01T11:57:57.972Z,3.88
2022-09-01T12:00:44.031Z,3.63
2022-09-01T12:03:30.553Z,3.20
2022-09-01T12:06:25.481Z,3.28
2022-09-01T12:09:11.437Z,3.10
2022-09-01T12:11:56.865Z,3.25
2022-09-01T12:15:04.512Z,3.25
2022-09-01T12:17:48.240Z,3.60
2022-09-01T12:20:38.546Z,3.38
2022-09-01T12:23:40.303Z,3.22
2022-09-01T12:26:29.439Z,3.83
2022-09-01T12:29:16.340Z,3.20
2022-09-01T12:32:02.004Z,3.05
2022-09-01T12:35:01.484Z,3.20
2022-09-01T12:37:47.936Z,3.10
2022-09-01T12:40:35.859Z,3.10
2022-09-01T12:43:39.782Z,2.83
2022-09-01T12:46:43.537Z,2.75
2022-09-01T12:49:48.085Z,2.90
2022-09-01T12:52:44.563Z,2.33
2022-09-01T12:55:51.020Z,2.70
2022-09-01T12:58:36.297Z,2.67
2022-09-01T13:01:32.327Z,2.60
2022-09-01T13:04:21.168Z,2.63
2022-09-01T13:07:08.897Z,2.55
2022-09-01T13:09:55.972Z,2.47
2022-09-01T13:12:42.948Z,2.53
2022-09-01T13:15:28.421Z,2.70
2022-09-01T13:18:14.992Z,2.60
2022-09-01T13:21:01.096Z,2.40
2022-09-01T13:23:46.736Z,2.55
2022-09-01T13:26:33.355Z,2.53
2022-09-01T13:29:19.084Z,3.30
2022-09-01T13:32:21.309Z,3.08
2022-09-01T13:35:08.313Z,2.58
2022-09-01T13:37:53.800Z,2.80
2022-09-01T13:40:39.405Z,3.10
2022-09-01T13:43:28.093Z,2.55
2022-09-01T13:46:13.872Z,2.40
2022-09-01T13:49:02.965Z,2.67
2022-09-01T13:51:52.550Z,2.53
2022-09-01T13:54:38.125Z,2.50
2022-09-01T13:57:23.432Z,2.70
2022-09-01T14:00:13.247Z,2.58
2022-09-01T14:03:07.429Z,2.80
2022-09-01T14:05:52.675Z,3.22
2022-09-01T14:08:38.435Z,2.90
2022-09-01T14:11:24.587Z,2.83
2022-09-01T14:14:10.141Z,2.70
2022-09-01T14:16:55.634Z,2.40
2022-09-01T14:19:42.293Z,2.75
2022-09-01T14:22:27.816Z,2.70
2022-09-01T14:25:14.377Z,2.92
2022-09-01T14:28:01.917Z,2.50
2022-09-01T14:30:48.870Z,2.80
2022-09-01T14:33:34.094Z,2.55
2022-09-01T14:36:23.141Z,2.65
2022-09-01T14:39:08.337Z,2.42
2022-09-01T14:41:54.931Z,2.03
2022-09-01T14:44:40.668Z,2.47
2022-09-01T14:47:26.410Z,2.22
2022-09-01T14:50:15.976Z,2.42
2022-09-01T14:53:04.151Z,2.40
2022-09-01T14:55:55.094Z,2.33
2022-09-01T14:58:42.173Z,2.47
2022-09-01T15:01:34.636Z,2.10
2022-09-01T15:04:20.573Z,2.42
2022-09-01T15:07:06.712Z,2.25
2022-09-01T15:09:52.707Z,2.50
2022-09-01T15:12:39.679Z,2.60
2022-09-01T15:15:27.561Z,2.30
2022-09-01T15:18:13.002Z,2.42
2022-09-01T15:20:58.636Z,2.50
2022-09-01T15:23:44.696Z,2.50
2022-09-01T15:26:30.946Z,2.70
2022-09-01T15:29:16.229Z,2.70
2022-09-01T15:32:02.130Z,2.53
2022-09-01T15:34:47.587Z,2.75
2022-09-01T15:37:34.982Z,2.53
2022-09-01T15:40:20.515Z,2.72
2022-09-01T15:43:06.327Z,2.78
2022-09-01T15:45:51.796Z,2.70
2022-09-01T15:48:37.991Z,2.35
2022-09-01T15:51:23.263Z,2.60
2022-09-01T15:54:15.168Z,2.58
2022-09-01T15:57:00.515Z,2.50
2022-09-01T15:59:46.538Z,2.42
2022-09-01T16:02:32.137Z,2.50
2022-09-01T16:05:17.813Z,2.40
2022-09-01T16:08:04.738Z,2.50
2022-09-01T16:10:50.019Z,2.25
2022-09-01T16:13:37.387Z,2.40
2022-09-01T16:16:54.227Z,2.65
2022-09-01T16:19:45.621Z,2.95
2022-09-01T16:22:35.739Z,2.75
2022-09-01T16:25:31.428Z,2.72
2022-09-01T16:28:30.253Z,3.20
2022-09-01T16:31:21.392Z,2.85
2022-09-01T16:34:14.629Z,2.60
2022-09-01T16:37:16.228Z,3.03
2022-09-01T16:40:28.035Z,2.90
2022-09-01T16:43:46.744Z,2.83
2022-09-01T16:46:58.589Z,2.53
2022-09-01T16:50:10.529Z,2.75
2022-09-01T16:53:30.140Z,3.03
2022-09-01T16:56:35.217Z,2.90
2022-09-01T16:59:34.571Z,2.75
2022-09-01T17:02:59.675Z,2.65
2022-09-01T17:06:01.820Z,2.55
2022-09-01T17:08:56.138Z,2.78
2022-09-01T17:11:57.984Z,2.25
2022-09-01T17:14:59.532Z,2.80
2022-09-01T17:18:23.004Z,2.67
2022-09-01T17:21:16.612Z,2.53
2022-09-01T17:24:31.857Z,2.45
2022-09-01T17:27:23.998Z,2.78
2022-09-01T17:30:09.900Z,3.13
2022-09-01T17:33:18.306Z,3.15
2022-09-01T17:36:10.570Z,3.10
2022-09-01T17:39:08.176Z,2.58
2022-09-01T17:41:58.998Z,3.10
2022-09-01T17:45:19.120Z,2.83
2022-09-01T17:48:18.415Z,2.97
2022-09-01T17:51:12.486Z,2.75
2022-09-01T17:54:24.768Z,3.33
2022-09-01T17:57:28.702Z,2.70
2022-09-01T18:00:23.112Z,3.25
2022-09-01T18:03:11.381Z,3.10
2022-09-01T18:06:08.896Z,3.50
2022-09-01T18:08:58.281Z,2.83
2022-09-01T18:15:08.683Z,3.30
2022-09-01T18:18:05.186Z,2.67
2022-09-01T18:20:55.984Z,2.60
2022-09-01T18:23:44.268Z,2.90
2022-09-01T18:26:38.725Z,3.20
2022-09-01T18:29:28.368Z,3.88
2022-09-01T18:32:32.619Z,3.30
2022-09-01T18:35:37.687Z,3.00
2022-09-01T18:38:40.096Z,3.10
2022-09-01T18:41:33.875Z,2.90
2022-09-01T18:44:32.554Z,3.70
2022-09-01T18:47:41.782Z,3.43
2022-09-01T18:50:42.547Z,3.03
2022-09-01T18:53:50.712Z,2.95
2022-09-01T18:57:02.428Z,3.38
2022-09-01T18:59:53.625Z,3.70
2022-09-01T19:02:54.153Z,3.50
2022-09-01T19:06:10.864Z,3.28
2022-09-01T19:09:04.061Z,3.30
2022-09-01T19:11:52.194Z,3.53
2022-09-01T19:14:40.177Z,3.28
2022-09-01T19:18:08.605Z,4.00
2022-09-01T19:21:05.709Z,4.05
2022-09-01T19:24:03.677Z,3.40
2022-09-01T19:27:00.187Z,4.18
2022-09-01T19:29:56.065Z,3.63
2022-09-01T19:32:42.083Z,3.63
2022-09-01T19:35:29.674Z,3.88
2022-09-01T19:38:20.700Z,3.55
2022-09-01T19:41:18.496Z,4.03
2022-09-01T19:44:28.478Z,4.18
2022-09-01T19:47:34.734Z,3.70
2022-09-01T19:50:23.932Z,3.90
2022-09-01T19:53:17.881Z,3.78
2022-09-01T19:56:29.100Z,4.28
2022-09-01T19:59:22.932Z,4.40
2022-09-01T20:02:28.891Z,3.92
2022-09-01T20:05:37.821Z,4.18
2022-09-01T20:08:34.681Z,4.25
2022-09-01T20:11:43.996Z,3.97
2022-09-01T20:14:47.118Z,4.53
2022-09-01T20:17:45.396Z,4.35
2022-09-01T20:20:38.993Z,4.20
2022-09-01T20:23:27.199Z,4.50
2022-09-01T20:26:25.443Z,4.38
2022-09-01T20:29:33.841Z,4.80
2022-09-01T20:32:27.560Z,4.43
2022-09-01T20:35:17.400Z,4.90
2022-09-01T20:38:44.482Z,4.68
2022-09-01T20:41:49.205Z,4.65
2022-09-01T20:44:50.989Z,4.65
2022-09-01T20:47:36.356Z,4.70
2022-09-01T20:50:30.413Z,4.97
2022-09-01T20:53:15.720Z,4.45
2022-09-01T20:56:38.051Z,4.90
2022-09-01T20:59:35.541Z,4.63
2022-09-01T21:02:46.387Z,4.55
2022-09-01T21:05:53.589Z,4.85
2022-09-01T21:08:56.510Z,4.78
2022-09-01T21:11:47.324Z,4.57
2022-09-01T21:15:10.792Z,4.65
2022-09-01T21:18:08.324Z,4.68
2022-09-01T21:21:07.063Z,4.63
2022-09-01T21:23:53.447Z,4.78
2022-09-01T21:26:40.230Z,4.85
2022-09-01T21:29:35.450Z,4.80
2022-09-01T21:32:22.679Z,4.90
2022-09-01T21:35:11.938Z,4.55
2022-09-01T21:37:57.084Z,4.90
2022-09-01T21:40:42.549Z,4.47
2022-09-01T21:43:41.594Z,4.60
2022-09-01T21:46:27.288Z,4.70
2022-09-01T21:49:14.197Z,4.43
2022-09-01T21:51:59.906Z,4.55
2022-09-01T21:54:45.384Z,4.30
2022-09-01T21:57:31.505Z,4.18
2022-09-01T22:00:20.221Z,4.35
2022-09-01T22:03:09.705Z,4.05
2022-09-01T22:05:54.884Z,3.92
2022-09-01T22:08:40.902Z,4.75
2022-09-01T22:11:28.921Z,4.28
2022-09-01T22:14:15.123Z,4.45
2022-09-01T22:17:04.318Z,4.13
2022-09-01T22:19:50.072Z,4.20
2022-09-01T22:22:35.877Z,4.22
2022-09-01T22:25:23.827Z,4.25
2022-09-01T22:28:09.732Z,3.85
2022-09-01T22:30:54.885Z,4.40
2022-09-01T22:33:40.357Z,4.30
2022-09-01T22:36:32.387Z,4.07
2022-09-01T22:39:18.387Z,4.22
2022-09-01T22:42:04.098Z,3.95
2022-09-01T22:44:49.458Z,3.97
2022-09-01T22:47:37.377Z,4.20
2022-09-01T22:50:23.788Z,4.13
2022-09-01T22:53:10.335Z,3.92
2022-09-01T22:55:55.684Z,4.05
2022-09-01T22:58:41.979Z,3.85
2022-09-01T23:01:31.552Z,3.88
2022-09-01T23:04:18.824Z,3.80
2022-09-01T23:07:05.920Z,4.10
2022-09-01T23:24:17.257Z,3.80
2022-09-01T23:27:05.516Z,3.70
2022-09-01T23:29:51.323Z,3.42
2022-09-01T23:32:37.460Z,3.60
2022-09-01T23:35:23.276Z,3.60
2022-09-01T23:38:10.517Z,3.67
2022-09-01T23:40:56.760Z,3.58
2022-09-01T23:43:43.065Z,3.78
2022-09-01T23:46:36.917Z,3.35
2022-09-01T23:49:22.725Z,3.42
2022-09-01T23:52:08.410Z,3.63
2022-09-01T23:54:54.479Z,3.22
2022-09-01T23:57:39.818Z,3.38
